Time;durP1;ratioP1;P1;durP2;ratioP2;P2;SDS_P1;SDS_P2;PMS_P1;PMS_P2;Temp;Humidity;BMP_temperature;BMP_pressure;BME280_temperature;BME280_humidity;BME280_pressure;Samples;Min_cycle;Max_cycle;Signal;HPM_P1;HPM_P2
2022/06/05 00:01:01;;;;;;;3.08;2.72;;;15.60;99.90;;;;;;6288381;28;20300;-66
2022/06/05 00:04:14;;;;;;;2.83;2.63;;;15.60;99.90;;;;;;6288061;28;20294;-67
2022/06/05 00:07:29;;;;;;;2.60;2.45;;;15.60;99.90;;;;;;6288085;28;20271;-66
2022/06/05 00:10:39;;;;;;;2.55;2.45;;;15.50;99.90;;;;;;6287963;28;20296;-65
2022/06/05 00:13:49;;;;;;;2.85;2.53;;;15.50;99.90;;;;;;6287435;28;20295;-66
2022/06/05 00:16:54;;;;;;;3.72;2.58;;;15.40;99.90;;;;;;6287212;28;20543;-66
2022/06/05 00:19:59;;;;;;;2.30;2.30;;;15.40;99.90;;;;;;6287652;28;20295;-66
2022/06/05 00:23:06;;;;;;;2.90;2.65;;;15.20;99.90;;;;;;6287582;28;20275;-67
2022/06/05 00:26:22;;;;;;;3.17;2.35;;;15.30;99.90;;;;;;6287808;28;20270;-67
2022/06/05 00:29:43;;;;;;;2.50;2.50;;;15.30;99.90;;;;;;6287601;28;20303;-66
2022/06/05 00:32:52;;;;;;;2.53;2.45;;;15.30;99.90;;;;;;6287738;28;20275;-67
2022/06/05 00:36:01;;;;;;;4.53;2.65;;;15.30;99.90;;;;;;6286986;28;20559;-67
2022/06/05 00:39:14;;;;;;;2.70;2.67;;;15.20;99.90;;;;;;6287219;28;20299;-66
2022/06/05 00:42:22;;;;;;;3.03;2.53;;;15.20;99.90;;;;;;6287415;28;20575;-67
2022/06/05 00:45:29;;;;;;;2.88;2.78;;;15.20;99.90;;;;;;6286308;28;20314;-66
2022/06/05 00:48:35;;;;;;;2.42;2.30;;;15.20;99.90;;;;;;6286674;28;20299;-67
2022/06/05 00:51:40;;;;;;;3.30;3.10;;;15.20;99.90;;;;;;6287638;28;20275;-67
2022/06/05 00:54:46;;;;;;;2.90;2.80;;;15.00;99.90;;;;;;6286691;28;20602;-67
2022/06/05 00:57:51;;;;;;;2.80;2.60;;;15.10;99.90;;;;;;6287213;28;20271;-67
2022/06/05 01:00:57;;;;;;;2.85;2.65;;;15.00;99.90;;;;;;6286138;28;20267;-67
2022/06/05 01:04:02;;;;;;;3.22;2.90;;;15.00;99.90;;;;;;6286715;28;20296;-67
2022/06/05 01:07:08;;;;;;;2.65;2.58;;;15.00;99.90;;;;;;6286780;28;20275;-67
2022/06/05 01:10:17;;;;;;;2.50;2.40;;;15.00;99.90;;;;;;6286068;28;20455;-67
2022/06/05 01:13:40;;;;;;;2.70;2.70;;;15.00;99.90;;;;;;6285999;28;20590;-67
2022/06/05 01:16:52;;;;;;;2.35;2.35;;;15.00;99.90;;;;;;6286434;28;20267;-67
2022/06/05 01:20:07;;;;;;;2.25;2.25;;;14.90;99.90;;;;;;6285559;28;20587;-67
2022/06/05 01:23:29;;;;;;;2.63;2.53;;;15.00;99.90;;;;;;6285646;28;20291;-67
2022/06/05 01:26:38;;;;;;;2.63;2.42;;;15.00;99.90;;;;;;6285833;28;20271;-67
2022/06/05 01:29:47;;;;;;;2.60;2.50;;;15.00;99.90;;;;;;6286091;28;20299;-66
2022/06/05 01:32:59;;;;;;;5.25;2.60;;;14.90;99.90;;;;;;6285728;28;20267;-67
2022/06/05 01:36:09;;;;;;;2.60;2.40;;;14.90;99.90;;;;;;6286549;28;20267;-67
2022/06/05 01:39:19;;;;;;;2.38;2.38;;;14.80;99.90;;;;;;6285484;28;20303;-67
2022/06/05 01:42:29;;;;;;;3.15;2.50;;;14.80;99.90;;;;;;6285808;28;20270;-68
2022/06/05 01:45:39;;;;;;;2.33;2.30;;;14.80;99.90;;;;;;6285928;28;20603;-67
2022/06/05 01:48:50;;;;;;;3.35;2.35;;;14.80;99.90;;;;;;6285111;28;20295;-67
2022/06/05 01:52:00;;;;;;;2.70;2.50;;;14.80;99.90;;;;;;6285929;28;20272;-67
2022/06/05 01:55:09;;;;;;;2.58;2.28;;;14.80;99.90;;;;;;6285600;28;20303;-67
2022/06/05 01:58:21;;;;;;;2.40;2.30;;;14.80;99.90;;;;;;6285349;28;20291;-67
2022/06/05 02:01:36;;;;;;;2.30;2.30;;;14.80;99.90;;;;;;6285130;28;20286;-67
2022/06/05 02:04:46;;;;;;;2.25;2.25;;;14.80;99.90;;;;;;6285499;28;20290;-67
2022/06/05 02:07:56;;;;;;;2.20;2.20;;;14.70;99.90;;;;;;6285572;28;20452;-67
2022/06/05 02:11:04;;;;;;;2.40;2.20;;;14.70;99.90;;;;;;6285251;28;20283;-67
2022/06/05 02:14:13;;;;;;;2.63;2.50;;;14.70;99.90;;;;;;6285230;28;20299;-67
2022/06/05 02:17:19;;;;;;;2.63;2.53;;;14.70;99.90;;;;;;6285071;28;20449;-67
2022/06/05 02:20:24;;;;;;;2.33;2.30;;;14.70;99.90;;;;;;6285076;28;20295;-67
2022/06/05 02:23:34;;;;;;;2.25;2.17;;;14.70;99.90;;;;;;6285474;28;20469;-67
2022/06/05 02:26:39;;;;;;;2.40;2.40;;;14.70;99.90;;;;;;6285511;28;20267;-67
2022/06/05 02:29:46;;;;;;;2.35;2.35;;;14.80;99.90;;;;;;6285248;28;20302;-67
2022/06/05 02:33:05;;;;;;;2.22;2.10;;;14.70;99.90;;;;;;6285465;28;20267;-67
2022/06/05 02:36:20;;;;;;;1.92;1.92;;;14.60;99.90;;;;;;6284975;28;20451;-66
2022/06/05 02:39:36;;;;;;;2.65;2.10;;;14.70;99.90;;;;;;6287666;28;20383;-67
2022/06/05 02:42:49;;;;;;;2.50;2.30;;;14.70;99.90;;;;;;6289837;28;20276;-67
2022/06/05 02:46:04;;;;;;;4.40;2.50;;;14.70;99.90;;;;;;6289565;28;20275;-67
2022/06/05 02:49:19;;;;;;;2.65;2.38;;;14.70;99.90;;;;;;6289203;28;20300;-67
2022/06/05 02:52:25;;;;;;;2.45;2.45;;;14.60;99.90;;;;;;6289748;28;20267;-67
2022/06/05 02:55:31;;;;;;;2.03;2.03;;;14.60;99.90;;;;;;6289289;28;20295;-67
2022/06/05 02:58:36;;;;;;;2.03;2.03;;;14.80;99.90;;;;;;6289403;28;20290;-67
2022/06/05 03:05:06;;;;;;;2.35;2.13;;;14.80;99.90;;;;;;6288795;28;20276;-67
2022/06/05 03:08:19;;;;;;;3.13;2.30;;;14.70;99.90;;;;;;6288714;28;20294;-67
2022/06/05 03:11:24;;;;;;;2.17;2.08;;;14.70;99.90;;;;;;6289979;28;20286;-67
2022/06/05 03:14:29;;;;;;;2.30;2.30;;;14.80;99.90;;;;;;6289116;28;20614;-67
2022/06/05 03:17:36;;;;;;;2.28;2.28;;;14.80;99.90;;;;;;6289098;28;20290;-67
2022/06/05 03:20:42;;;;;;;2.22;2.20;;;14.90;99.90;;;;;;6289430;28;20287;-67
2022/06/05 03:23:48;;;;;;;2.25;2.08;;;14.90;99.90;;;;;;6288861;28;20302;-67
2022/06/05 03:26:53;;;;;;;2.28;2.10;;;14.90;99.90;;;;;;6289667;28;20574;-66
2022/06/05 03:29:59;;;;;;;2.10;2.10;;;15.00;99.90;;;;;;6289007;28;20295;-67
2022/06/05 03:33:06;;;;;;;2.25;2.13;;;15.00;99.90;;;;;;6289066;28;20482;-67
2022/06/05 03:36:14;;;;;;;2.33;2.13;;;15.10;99.90;;;;;;6289051;28;20268;-66
2022/06/05 03:39:20;;;;;;;2.13;2.13;;;15.20;99.90;;;;;;6288469;28;20338;-67
2022/06/05 03:42:25;;;;;;;2.10;2.10;;;15.30;99.90;;;;;;6288290;28;20294;-67
2022/06/05 03:45:30;;;;;;;2.10;2.00;;;15.40;99.90;;;;;;6288622;28;20562;-66
2022/06/05 03:48:37;;;;;;;1.85;1.85;;;15.40;99.90;;;;;;6288175;28;20294;-67
2022/06/05 03:51:42;;;;;;;2.13;2.00;;;15.40;99.90;;;;;;6288378;28;20319;-66
2022/06/05 03:54:47;;;;;;;2.70;2.50;;;15.40;99.90;;;;;;6288195;28;20295;-67
2022/06/05 03:57:53;;;;;;;2.30;2.30;;;15.60;99.90;;;;;;6288104;28;20298;-67
2022/06/05 04:00:58;;;;;;;2.22;2.10;;;15.60;99.90;;;;;;6288717;28;20291;-67
2022/06/05 04:04:04;;;;;;;2.17;2.17;;;15.60;99.90;;;;;;6288004;28;20299;-67
2022/06/05 04:07:09;;;;;;;2.85;2.00;;;15.60;99.90;;;;;;6287957;28;20332;-67
2022/06/05 04:10:16;;;;;;;2.30;2.10;;;15.60;99.90;;;;;;6288040;28;20546;-67
2022/06/05 04:13:21;;;;;;;2.10;2.10;;;15.60;99.90;;;;;;6287385;28;20475;-66
2022/06/05 04:16:29;;;;;;;2.28;2.17;;;15.60;99.90;;;;;;6288653;28;20453;-67
2022/06/05 04:19:36;;;;;;;2.33;2.28;;;15.70;99.90;;;;;;6287128;28;20303;-66
2022/06/05 04:22:41;;;;;;;2.10;2.10;;;15.60;99.90;;;;;;6287653;28;20298;-66
2022/06/05 04:25:47;;;;;;;2.30;2.10;;;15.60;99.90;;;;;;6288050;28;20267;-67
2022/06/05 04:28:54;;;;;;;2.08;2.03;;;15.70;99.90;;;;;;6286991;28;20291;-67
2022/06/05 04:32:00;;;;;;;2.10;2.10;;;15.70;99.90;;;;;;6287689;28;20574;-66
2022/06/05 04:35:08;;;;;;;2.20;2.20;;;15.80;99.90;;;;;;6287178;28;20271;-66
2022/06/05 04:38:14;;;;;;;2.17;2.10;;;15.80;99.90;;;;;;6287472;28;20299;-67
2022/06/05 04:41:21;;;;;;;2.22;2.20;;;15.80;99.90;;;;;;6287402;28;20291;-66
2022/06/05 04:44:26;;;;;;;2.22;2.08;;;15.80;99.90;;;;;;6287339;28;20295;-67
2022/06/05 04:47:31;;;;;;;3.53;2.40;;;15.90;99.90;;;;;;6287120;28;20295;-67
2022/06/05 04:50:38;;;;;;;1.83;1.83;;;15.90;99.90;;;;;;6287332;28;20454;-67
2022/06/05 04:53:44;;;;;;;1.58;1.58;;;15.90;99.90;;;;;;6286739;28;20303;-67
2022/06/05 04:56:49;;;;;;;3.15;1.80;;;16.10;99.90;;;;;;6287347;28;20445;-67
2022/06/05 04:59:55;;;;;;;1.90;1.90;;;16.20;99.90;;;;;;6286751;28;20294;-67
2022/06/05 05:03:00;;;;;;;2.20;2.10;;;16.30;99.90;;;;;;6286197;28;20295;-67
2022/06/05 05:06:06;;;;;;;1.67;1.67;;;16.40;99.90;;;;;;6286771;28;20271;-67
2022/06/05 05:09:12;;;;;;;1.90;1.75;;;16.50;99.90;;;;;;6286227;28;20294;-67
2022/06/05 05:12:18;;;;;;;2.08;1.92;;;16.60;99.90;;;;;;6286010;28;20267;-67
2022/06/05 05:15:23;;;;;;;1.80;1.80;;;16.80;99.90;;;;;;6286977;28;20271;-67
2022/06/05 05:18:28;;;;;;;4.38;1.70;;;16.70;99.90;;;;;;6285703;28;20308;-67
2022/06/05 05:21:35;;;;;;;1.67;1.67;;;16.90;99.90;;;;;;6286581;28;20591;-67
2022/06/05 05:24:40;;;;;;;1.73;1.73;;;17.00;99.90;;;;;;6285683;28;20303;-67
2022/06/05 05:27:45;;;;;;;1.50;1.50;;;17.30;99.90;;;;;;6286035;28;20290;-67
2022/06/05 05:30:50;;;;;;;1.50;1.50;;;17.60;99.90;;;;;;6286645;28;20278;-67
2022/06/05 05:33:57;;;;;;;1.50;1.50;;;17.80;99.90;;;;;;6286045;28;20302;-67
2022/06/05 05:37:04;;;;;;;1.63;1.48;;;18.00;99.90;;;;;;6285789;28;20558;-67
2022/06/05 05:43:34;;;;;;;1.50;1.50;;;18.30;99.90;;;;;;6285599;28;20299;-68
2022/06/05 05:46:39;;;;;;;1.50;1.50;;;18.50;99.90;;;;;;6286288;28;20290;-67
2022/06/05 05:49:45;;;;;;;1.50;1.50;;;18.60;99.90;;;;;;6285579;28;20303;-67
2022/06/05 05:52:51;;;;;;;1.65;1.63;;;18.60;99.90;;;;;;6285430;28;20298;-66
2022/06/05 05:55:56;;;;;;;1.40;1.40;;;18.80;99.30;;;;;;6285987;28;20275;-67
2022/06/05 05:59:01;;;;;;;1.60;1.60;;;18.90;99.10;;;;;;6285210;28;20294;-67
2022/06/05 06:02:11;;;;;;;1.60;1.60;;;18.80;98.60;;;;;;6285076;28;20294;-67
2022/06/05 06:05:18;;;;;;;1.30;1.30;;;18.90;98.80;;;;;;6285758;28;20271;-67
2022/06/05 06:08:25;;;;;;;1.70;1.60;;;18.90;98.10;;;;;;6285494;28;20595;-67
2022/06/05 06:11:30;;;;;;;1.50;1.50;;;18.80;98.00;;;;;;6285420;28;20632;-67
2022/06/05 06:14:36;;;;;;;1.60;1.60;;;18.80;98.30;;;;;;6289394;28;20295;-66
2022/06/05 06:17:41;;;;;;;1.60;1.60;;;19.00;98.30;;;;;;6289864;28;20295;-66
2022/06/05 06:20:46;;;;;;;1.63;1.63;;;19.10;98.40;;;;;;6273578;28;20270;-67
2022/06/05 06:23:53;;;;;;;1.60;1.45;;;19.20;98.80;;;;;;6290428;28;20307;-66
2022/06/05 06:26:58;;;;;;;1.50;1.50;;;19.30;98.20;;;;;;6290614;28;20275;-67
2022/06/05 06:30:03;;;;;;;1.95;1.67;;;19.30;98.60;;;;;;6289928;28;20606;-67
2022/06/05 06:33:13;;;;;;;2.08;1.55;;;19.30;98.40;;;;;;6289860;28;20295;-66
2022/06/05 06:36:20;;;;;;;1.73;1.73;;;19.40;98.80;;;;;;6290566;28;20271;-67
2022/06/05 06:39:46;;;;;;;1.65;1.65;;;19.50;98.90;;;;;;6289895;28;20300;-66
2022/06/05 06:42:51;;;;;;;1.60;1.60;;;19.60;97.90;;;;;;6289735;28;20303;-67
2022/06/05 06:45:58;;;;;;;1.80;1.65;;;19.50;97.90;;;;;;6272659;28;20275;-67
2022/06/05 06:49:04;;;;;;;2.10;1.67;;;19.50;97.60;;;;;;6289624;28;20294;-67
2022/06/05 06:52:11;;;;;;;1.60;1.60;;;19.60;97.40;;;;;;6289239;28;20270;-67
2022/06/05 06:55:18;;;;;;;4.70;1.70;;;19.60;97.60;;;;;;6289633;28;20279;-67
2022/06/05 06:58:23;;;;;;;1.70;1.60;;;19.60;97.80;;;;;;6289271;28;20296;-66
2022/06/05 07:01:28;;;;;;;1.45;1.40;;;19.60;97.40;;;;;;6289256;28;20270;-66
2022/06/05 07:04:34;;;;;;;1.40;1.38;;;19.70;96.80;;;;;;6289515;28;20373;-66
2022/06/05 07:07:39;;;;;;;1.67;1.58;;;19.80;96.50;;;;;;6289415;28;20299;-66
2022/06/05 07:10:46;;;;;;;1.60;1.55;;;19.90;96.30;;;;;;6289353;28;20263;-67
2022/06/05 07:13:51;;;;;;;1.50;1.50;;;19.90;96.20;;;;;;6289009;28;20332;-66
2022/06/05 07:16:56;;;;;;;2.33;1.60;;;19.90;96.50;;;;;;6289471;28;20270;-67
2022/06/05 07:20:02;;;;;;;1.90;1.60;;;20.00;97.20;;;;;;6288579;28;20303;-67
2022/06/05 07:23:08;;;;;;;1.80;1.67;;;20.10;96.10;;;;;;6288739;28;20304;-65
2022/06/05 07:26:18;;;;;;;1.83;1.70;;;20.20;96.10;;;;;;6288343;28;20271;-66
2022/06/05 07:29:23;;;;;;;1.65;1.55;;;20.30;95.60;;;;;;6288607;28;20295;-67
2022/06/05 07:32:28;;;;;;;2.35;2.15;;;20.30;95.60;;;;;;6288430;28;20481;-66
2022/06/05 07:35:33;;;;;;;1.40;1.40;;;20.40;94.90;;;;;;6289000;28;20280;-67
2022/06/05 07:38:39;;;;;;;1.52;1.52;;;20.40;94.50;;;;;;6288446;28;20451;-67
2022/06/05 07:41:46;;;;;;;2.05;1.60;;;20.40;94.50;;;;;;6288810;28;20311;-67
2022/06/05 07:44:50;;;;;;;1.60;1.60;;;20.50;95.10;;;;;;6288338;28;20303;-66
2022/06/05 07:47:56;;;;;;;1.50;1.50;;;20.60;94.90;;;;;;6287908;28;20303;-67
2022/06/05 07:54:31;;;;;;;1.38;1.38;;;20.60;93.50;;;;;;6287792;28;20303;-66
2022/06/05 07:57:38;;;;;;;3.50;1.63;;;20.60;93.70;;;;;;6287356;28;20291;-67
2022/06/05 08:00:43;;;;;;;2.20;1.80;;;20.50;93.80;;;;;;6287986;28;20271;-67
2022/06/05 08:03:47;;;;;;;1.70;1.70;;;20.60;95.20;;;;;;6287195;28;20298;-67
2022/06/05 08:06:53;;;;;;;1.60;1.50;;;20.70;93.80;;;;;;6287540;28;20271;-67
2022/06/05 08:09:58;;;;;;;1.52;1.52;;;20.80;94.10;;;;;;6286648;28;20294;-67
2022/06/05 08:13:05;;;;;;;1.73;1.63;;;20.70;93.70;;;;;;6287246;28;20294;-67
2022/06/05 08:16:12;;;;;;;2.15;2.03;;;20.80;94.60;;;;;;6287756;28;20452;-67
2022/06/05 08:19:20;;;;;;;3.33;1.70;;;20.80;93.70;;;;;;6286135;28;20311;-67
2022/06/05 08:22:26;;;;;;;2.83;2.72;;;20.80;93.50;;;;;;6287222;28;20299;-66
2022/06/05 08:25:31;;;;;;;5.25;4.95;;;20.80;94.40;;;;;;6287602;28;20473;-67
2022/06/05 08:28:39;;;;;;;2.45;2.30;;;20.80;94.00;;;;;;6287275;28;20295;-67
2022/06/05 08:31:44;;;;;;;2.40;2.20;;;20.70;93.90;;;;;;6287183;28;20279;-67
2022/06/05 08:34:49;;;;;;;2.25;1.90;;;20.70;94.20;;;;;;6286506;28;20439;-67
2022/06/05 08:41:34;;;;;;;2.08;1.90;;;20.60;94.40;;;;;;6286755;28;20558;-68
2022/06/05 08:44:44;;;;;;;1.77;1.67;;;20.60;95.00;;;;;;6268703;28;20295;-68
2022/06/05 08:47:55;;;;;;;1.98;1.85;;;20.70;95.30;;;;;;6286488;28;20483;-68
2022/06/05 08:51:14;;;;;;;2.88;1.95;;;20.70;94.40;;;;;;6287019;28;20271;-68
2022/06/05 08:54:23;;;;;;;4.30;2.17;;;20.70;94.90;;;;;;6286402;28;20299;-68
2022/06/05 08:57:34;;;;;;;1.80;1.80;;;20.60;96.10;;;;;;6286639;28;20311;-68
2022/06/05 09:00:45;;;;;;;2.47;2.28;;;20.60;96.30;;;;;;6285675;28;20274;-67
2022/06/05 09:03:55;;;;;;;2.15;2.05;;;20.60;95.50;;;;;;6286086;28;20391;-68
2022/06/05 09:07:05;;;;;;;3.22;2.10;;;20.60;96.10;;;;;;6286263;28;20297;-68
2022/06/05 09:10:16;;;;;;;1.90;1.90;;;20.60;96.10;;;;;;6285217;28;20279;-68
2022/06/05 09:13:28;;;;;;;6.28;5.80;;;20.60;95.80;;;;;;6285829;28;20426;-67
2022/06/05 09:16:41;;;;;;;2.58;2.38;;;20.60;96.40;;;;;;6286017;28;20278;-68
2022/06/05 09:19:48;;;;;;;2.30;2.30;;;20.50;96.50;;;;;;6285601;28;20312;-68
2022/06/05 09:22:59;;;;;;;2.30;2.20;;;20.40;96.40;;;;;;6285546;28;20298;-68
2022/06/05 09:26:09;;;;;;;2.47;2.28;;;20.40;96.70;;;;;;6286457;28;20287;-68
2022/06/05 09:29:32;;;;;;;2.35;2.20;;;20.50;97.40;;;;;;6285649;28;20298;-67
2022/06/05 09:33:05;;;;;;;2.30;2.30;;;20.50;96.50;;;;;;6285720;28;20598;-68
2022/06/05 09:36:18;;;;;;;2.40;2.20;;;20.40;96.90;;;;;;6285806;28;20279;-68
2022/06/05 09:39:28;;;;;;;3.17;2.40;;;20.40;96.30;;;;;;6285411;28;20295;-68
2022/06/05 09:42:55;;;;;;;2.65;2.55;;;20.50;96.30;;;;;;6285294;28;20294;-69
2022/06/05 09:46:14;;;;;;;2.72;2.70;;;20.60;96.40;;;;;;6285293;28;20509;-68
2022/06/05 09:49:27;;;;;;;2.63;2.47;;;20.50;96.30;;;;;;6285065;28;20294;-68
2022/06/05 09:52:33;;;;;;;2.20;2.20;;;20.50;96.00;;;;;;6285510;28;20291;-68
2022/06/05 09:55:47;;;;;;;2.28;2.05;;;20.50;96.80;;;;;;6285871;28;20274;-68
2022/06/05 09:59:09;;;;;;;2.72;2.55;;;20.60;96.60;;;;;;6285357;28;20299;-68
2022/06/05 10:02:15;;;;;;;4.25;2.10;;;20.60;96.40;;;;;;6284759;28;20275;-68
2022/06/05 10:05:31;;;;;;;1.90;1.90;;;20.60;96.00;;;;;;6284711;28;20358;-68
2022/06/05 10:08:41;;;;;;;2.60;2.50;;;20.60;96.40;;;;;;6284896;28;20315;-68
2022/06/05 10:11:53;;;;;;;2.38;2.38;;;20.70;96.20;;;;;;6285006;28;20268;-68
2022/06/05 10:15:01;;;;;;;2.38;2.17;;;20.70;95.90;;;;;;6284753;28;20299;-67
2022/06/05 10:18:13;;;;;;;2.50;2.40;;;20.70;96.20;;;;;;6285318;28;20485;-67
2022/06/05 10:21:22;;;;;;;2.20;2.10;;;20.70;96.30;;;;;;6285249;28;20279;-67
2022/06/05 10:24:36;;;;;;;2.47;2.28;;;20.80;96.00;;;;;;6284794;28;20299;-67
2022/06/05 10:27:49;;;;;;;2.22;2.10;;;20.80;95.20;;;;;;6284973;28;20298;-68
2022/06/05 10:31:01;;;;;;;2.20;2.03;;;20.90;94.50;;;;;;6284886;28;20271;-67
2022/06/05 10:34:13;;;;;;;2.63;2.40;;;21.00;94.40;;;;;;6285038;28;20294;-68
2022/06/05 10:37:26;;;;;;;3.10;2.33;;;20.90;93.80;;;;;;6285055;28;20275;-67
2022/06/05 10:40:42;;;;;;;1.80;1.80;;;21.00;93.50;;;;;;6284655;28;20407;-67
2022/06/05 10:44:08;;;;;;;2.40;2.40;;;21.00;92.40;;;;;;6284478;28;20300;-67
2022/06/05 10:47:18;;;;;;;2.67;2.58;;;21.10;93.20;;;;;;6284770;28;20291;-67
2022/06/05 10:50:27;;;;;;;2.60;2.42;;;21.10;93.10;;;;;;6284988;28;20559;-67
2022/06/05 10:53:43;;;;;;;2.30;2.30;;;21.00;91.50;;;;;;6284586;28;20303;-67
2022/06/05 10:56:55;;;;;;;2.75;2.40;;;21.00;91.00;;;;;;6284653;28;20276;-66
2022/06/05 11:00:07;;;;;;;2.00;2.00;;;21.10;91.50;;;;;;6286851;28;20300;-67
2022/06/05 11:03:20;;;;;;;2.45;2.35;;;21.10;90.70;;;;;;6288996;28;20291;-67
2022/06/05 11:06:35;;;;;;;2.38;2.22;;;21.10;91.00;;;;;;6289204;28;20379;-66
2022/06/05 11:09:48;;;;;;;3.10;2.90;;;21.20;92.10;;;;;;6288840;28;20342;-67
2022/06/05 11:16:31;;;;;;;3.97;3.78;;;21.30;92.70;;;;;;6289148;28;20411;-66
2022/06/05 11:19:44;;;;;;;2.83;2.80;;;21.30;91.50;;;;;;6288045;28;20303;-67
2022/06/05 11:22:59;;;;;;;2.95;2.70;;;21.40;91.30;;;;;;6288468;28;20295;-66
2022/06/05 11:26:13;;;;;;;4.20;3.95;;;21.40;91.60;;;;;;6288508;28;20271;-67
2022/06/05 11:29:25;;;;;;;3.92;3.83;;;21.40;91.70;;;;;;6288420;28;20306;-67
2022/06/05 11:32:44;;;;;;;5.90;3.80;;;21.50;91.60;;;;;;6288068;28;20387;-67
2022/06/05 11:36:12;;;;;;;4.63;4.10;;;21.50;91.40;;;;;;6289153;28;20404;-66
2022/06/05 11:39:30;;;;;;;5.45;5.25;;;21.50;91.50;;;;;;6288313;28;20295;-67
2022/06/05 11:42:46;;;;;;;6.65;6.03;;;21.50;90.90;;;;;;6288178;28;20295;-67
2022/06/05 11:45:55;;;;;;;3.90;3.70;;;21.50;90.60;;;;;;6288123;28;20272;-67
2022/06/05 11:49:07;;;;;;;5.50;4.03;;;21.60;90.40;;;;;;6287768;28;20299;-66
2022/06/05 11:52:19;;;;;;;5.05;4.85;;;21.50;90.10;;;;;;6287485;28;20458;-66
2022/06/05 11:55:31;;;;;;;3.97;2.72;;;21.60;90.20;;;;;;6288302;28;20347;-66
2022/06/05 11:58:42;;;;;;;5.15;4.75;;;21.60;86.50;;;;;;6287879;28;20299;-66
2022/06/05 12:01:54;;;;;;;2.80;2.60;;;21.70;83.90;;;;;;6288156;28;20271;-67
2022/06/05 12:05:05;;;;;;;2.33;2.33;;;21.70;81.90;;;;;;6287406;28;20291;-66
2022/06/05 12:08:17;;;;;;;2.25;2.15;;;21.70;84.20;;;;;;6286782;28;20547;-66
2022/06/05 12:11:27;;;;;;;2.45;2.35;;;21.80;86.60;;;;;;6287539;28;20262;-67
2022/06/05 12:14:36;;;;;;;2.50;2.40;;;21.90;85.20;;;;;;6269267;28;20295;-66
2022/06/05 12:17:47;;;;;;;2.40;2.40;;;21.90;81.30;;;;;;6286529;28;20586;-67
2022/06/05 12:20:56;;;;;;;2.40;2.35;;;22.00;80.70;;;;;;6287021;28;20269;-67
2022/06/05 12:24:09;;;;;;;6.32;2.30;;;22.00;78.40;;;;;;6286808;28;20295;-67
2022/06/05 12:27:17;;;;;;;2.47;2.38;;;22.10;75.20;;;;;;6286847;28;20290;-67
2022/06/05 12:30:27;;;;;;;2.03;1.90;;;22.00;76.00;;;;;;6287669;28;20271;-67
2022/06/05 12:33:40;;;;;;;2.15;2.05;;;22.00;74.90;;;;;;6286683;28;20483;-67
2022/06/05 12:36:48;;;;;;;2.17;1.95;;;22.20;73.20;;;;;;6287582;28;20271;-67
2022/06/05 12:39:57;;;;;;;2.75;2.65;;;22.40;74.80;;;;;;6286371;28;20298;-66
2022/06/05 12:43:06;;;;;;;2.55;2.35;;;22.40;72.70;;;;;;6286392;28;20291;-67
2022/06/05 12:46:18;;;;;;;3.53;2.70;;;22.50;72.10;;;;;;6286999;28;20275;-67
2022/06/05 12:49:28;;;;;;;2.50;2.50;;;22.50;76.50;;;;;;6286428;28;20457;-67
2022/06/05 12:52:38;;;;;;;3.30;2.30;;;22.20;84.30;;;;;;6285661;28;20290;-67
2022/06/05 12:55:47;;;;;;;2.70;2.17;;;21.90;87.40;;;;;;6287068;28;20519;-67
2022/06/05 12:58:59;;;;;;;1.90;1.90;;;21.90;88.50;;;;;;6285907;28;20299;-67
2022/06/05 13:02:16;;;;;;;2.63;2.30;;;21.70;89.40;;;;;;6286001;28;20266;-67
2022/06/05 13:05:29;;;;;;;2.25;2.15;;;21.80;89.20;;;;;;6287075;28;20279;-67
2022/06/05 13:08:40;;;;;;;5.18;2.97;;;21.80;90.30;;;;;;6285859;28;20478;-66
2022/06/05 13:11:52;;;;;;;2.33;2.33;;;21.60;90.10;;;;;;6286576;28;20510;-67
2022/06/05 13:15:03;;;;;;;1.98;1.98;;;21.60;90.60;;;;;;6285822;28;20295;-67
2022/06/05 13:18:24;;;;;;;2.95;1.95;;;21.50;90.90;;;;;;6285333;28;20308;-67
2022/06/05 13:21:36;;;;;;;2.67;2.65;;;21.50;91.50;;;;;;6285466;28;20267;-67
2022/06/05 13:24:52;;;;;;;5.20;3.95;;;21.50;91.10;;;;;;6285533;28;20295;-67
2022/06/05 13:28:08;;;;;;;3.83;1.90;;;21.20;91.30;;;;;;6285509;28;20484;-67
2022/06/05 13:31:27;;;;;;;2.30;1.80;;;21.00;91.10;;;;;;6286014;28;20291;-67
2022/06/05 13:34:39;;;;;;;1.88;1.88;;;20.80;91.70;;;;;;6285674;28;20291;-67
2022/06/05 13:37:50;;;;;;;1.67;1.63;;;20.70;91.70;;;;;;6285446;28;20290;-67
2022/06/05 13:41:02;;;;;;;3.28;2.00;;;20.70;92.30;;;;;;6285693;28;20276;-67
2022/06/05 13:44:16;;;;;;;3.33;1.92;;;21.00;91.40;;;;;;6285148;28;20314;-67
2022/06/05 13:47:44;;;;;;;1.75;1.75;;;21.30;91.40;;;;;;6285225;28;20481;-67
2022/06/05 13:50:57;;;;;;;8.55;2.13;;;22.60;89.00;;;;;;6285242;28;20267;-67
2022/06/05 13:54:16;;;;;;;4.47;1.52;;;23.10;84.10;;;;;;6284767;28;20306;-67
2022/06/05 13:57:27;;;;;;;2.30;2.20;;;23.60;82.00;;;;;;6285252;28;20368;-67
2022/06/05 14:00:37;;;;;;;1.90;1.90;;;22.90;83.60;;;;;;6285504;28;20279;-67
2022/06/05 14:03:47;;;;;;;1.98;1.85;;;22.70;83.90;;;;;;6285351;28;20291;-67
2022/06/05 14:07:00;;;;;;;1.83;1.63;;;22.70;84.70;;;;;;6284609;28;20271;-66
2022/06/05 14:10:19;;;;;;;3.13;1.95;;;23.00;82.20;;;;;;6283879;28;20295;-67
2022/06/05 14:13:25;;;;;;;1.80;1.70;;;23.20;81.80;;;;;;6284990;28;20312;-66
2022/06/05 14:16:34;;;;;;;2.30;2.10;;;22.90;80.70;;;;;;6285275;28;20266;-65
2022/06/05 14:19:39;;;;;;;1.67;1.67;;;22.40;83.10;;;;;;6284814;28;20492;-65
2022/06/05 14:22:49;;;;;;;2.08;2.00;;;22.20;84.30;;;;;;6284809;28;20287;-65
2022/06/05 14:25:59;;;;;;;2.35;1.70;;;21.60;84.40;;;;;;6284144;28;20272;-65
2022/06/05 14:29:07;;;;;;;3.15;1.83;;;21.50;85.40;;;;;;6283995;28;20295;-65
2022/06/05 14:32:22;;;;;;;2.08;2.05;;;21.20;86.80;;;;;;6281914;28;20263;-65
2022/06/05 14:35:35;;;;;;;2.00;1.98;;;21.10;87.40;;;;;;6284906;28;20268;-65
2022/06/05 14:38:46;;;;;;;2.00;2.00;;;20.90;89.20;;;;;;6288281;28;20312;-68
2022/06/05 14:42:00;;;;;;;2.55;1.73;;;21.00;88.80;;;;;;6289968;28;20271;-68
2022/06/05 14:45:12;;;;;;;2.80;2.80;;;21.90;87.00;;;;;;6289359;28;20280;-67
2022/06/05 14:48:21;;;;;;;2.05;2.00;;;22.80;80.90;;;;;;6289095;28;20299;-67
2022/06/05 14:51:34;;;;;;;2.63;2.53;;;22.70;80.60;;;;;;6288716;28;20446;-67
2022/06/05 14:58:17;;;;;;;2.97;2.10;;;22.00;80.70;;;;;;6256825;28;20294;-67
2022/06/05 15:01:31;;;;;;;1.73;1.73;;;21.80;81.40;;;;;;6271378;28;20446;-66
2022/06/05 15:04:47;;;;;;;2.08;2.08;;;21.50;82.70;;;;;;6288719;28;20437;-67
2022/06/05 15:07:58;;;;;;;2.95;1.25;;;21.50;84.30;;;;;;6288648;28;20291;-66
2022/06/05 15:11:06;;;;;;;1.27;1.27;;;21.50;83.60;;;;;;6289046;28;20299;-67
2022/06/05 15:14:17;;;;;;;1.25;1.17;;;21.20;83.80;;;;;;6288503;28;20291;-67
2022/06/05 15:17:30;;;;;;;1.52;1.30;;;21.30;83.80;;;;;;6288196;28;20527;-67
2022/06/05 15:20:50;;;;;;;1.20;1.20;;;21.20;84.10;;;;;;6289137;28;20271;-66
2022/06/05 15:24:01;;;;;;;1.40;1.20;;;21.20;84.10;;;;;;6288025;28;20295;-67
2022/06/05 15:27:17;;;;;;;1.20;1.20;;;20.90;83.80;;;;;;6288224;28;20275;-67
2022/06/05 15:30:27;;;;;;;1.30;1.20;;;20.90;83.90;;;;;;6288421;28;20290;-67
2022/06/05 15:33:41;;;;;;;1.42;1.20;;;20.90;84.50;;;;;;6287997;28;20487;-66
2022/06/05 15:36:54;;;;;;;2.20;1.10;;;21.30;83.60;;;;;;6288989;28;20270;-67
2022/06/05 15:40:03;;;;;;;3.05;1.08;;;21.20;82.40;;;;;;6288193;28;20295;-66
2022/06/05 15:43:45;;;;;;;1.13;1.13;;;21.10;83.00;;;;;;6287607;28;20298;-67
2022/06/05 15:47:01;;;;;;;1.15;1.08;;;21.00;84.00;;;;;;6286729;28;20283;-67
2022/06/05 15:50:24;;;;;;;1.20;1.20;;;21.00;83.20;;;;;;6287312;28;20291;-67
2022/06/05 15:53:52;;;;;;;1.50;1.40;;;20.80;84.20;;;;;;6287431;28;20597;-67
2022/06/05 15:58:17;;;;;;;1.23;1.23;;;20.70;83.80;;;;;;6288166;28;20275;-67
2022/06/05 16:00:54;;;;;;;1.23;1.20;;;20.50;83.70;;;;;;6287141;28;20275;-67
2022/06/05 16:04:04;;;;;;;1.92;1.10;;;20.50;83.70;;;;;;6287178;28;20291;-66
2022/06/05 16:07:14;;;;;;;1.25;1.20;;;20.20;83.30;;;;;;6287350;28;20477;-69
2022/06/05 16:10:22;;;;;;;1.33;1.33;;;20.00;84.50;;;;;;6287936;28;20283;-67
2022/06/05 16:13:28;;;;;;;1.08;1.08;;;20.10;84.00;;;;;;6287313;28;20618;-67
2022/06/05 16:16:57;;;;;;;1.15;1.15;;;20.20;83.30;;;;;;6287382;28;20295;-67
2022/06/05 16:20:15;;;;;;;1.20;1.20;;;20.10;81.80;;;;;;6287231;28;20303;-68
2022/06/05 16:23:33;;;;;;;1.02;1.02;;;20.10;82.70;;;;;;6287234;28;20299;-67
2022/06/05 16:26:44;;;;;;;1.00;1.00;;;20.10;82.10;;;;;;6287811;28;20267;-67
2022/06/05 16:29:49;;;;;;;3.30;1.20;;;20.10;80.90;;;;;;6286962;28;20304;-68
2022/06/05 16:32:56;;;;;;;1.75;1.00;;;20.10;80.90;;;;;;6287278;28;20295;-67
2022/06/05 16:39:28;;;;;;;1.20;1.20;;;20.20;78.90;;;;;;6286811;28;20295;-67
2022/06/05 16:42:35;;;;;;;1.40;1.38;;;20.20;78.30;;;;;;6286575;28;20299;-67
2022/06/05 16:45:54;;;;;;;3.70;1.30;;;19.90;77.70;;;;;;6286738;28;20271;-66
2022/06/05 16:49:07;;;;;;;1.33;1.30;;;19.80;78.20;;;;;;6286702;28;20295;-67
2022/06/05 16:52:18;;;;;;;5.88;2.78;;;19.60;78.00;;;;;;6286382;28;20552;-67
2022/06/05 16:55:26;;;;;;;1.50;1.50;;;19.60;77.70;;;;;;6286690;28;20272;-67